createdAt,value
2024-01-06T00:00:43.507Z,100.00
2024-01-06T00:03:07.405Z,99.21
2024-01-06T00:05:30.999Z,99.47
2024-01-06T00:07:54.689Z,99.68
2024-01-06T00:10:18.445Z,100.00
2024-01-06T00:12:42.148Z,100.00
2024-01-06T00:15:09.469Z,99.72
2024-01-06T00:17:33.155Z,100.00
2024-01-06T00:19:56.971Z,99.72
2024-01-06T00:22:20.808Z,99.77
2024-01-06T00:24:44.475Z,100.00
2024-01-06T00:27:08.165Z,100.00
2024-01-06T00:29:31.775Z,100.00
2024-01-06T00:31:56.916Z,100.00
2024-01-06T00:34:20.570Z,100.00
2024-01-06T00:36:44.361Z,99.37
2024-01-06T00:39:08.113Z,99.45
2024-01-06T00:41:31.749Z,99.74
2024-01-06T00:43:55.313Z,99.68
2024-01-06T00:46:18.997Z,99.52
2024-01-06T00:48:44.868Z,100.00
2024-01-06T00:51:08.885Z,100.00
2024-01-06T00:53:32.523Z,98.62
2024-01-06T00:55:56.286Z,98.47
2024-01-06T00:58:19.844Z,98.82
2024-01-06T01:00:43.580Z,99.04
2024-01-06T01:03:07.422Z,100.00
2024-01-06T01:05:32.500Z,99.48
2024-01-06T01:07:56.140Z,99.58
2024-01-06T01:10:19.909Z,99.21
2024-01-06T01:12:43.522Z,100.00
2024-01-06T01:15:08.424Z,99.49
2024-01-06T01:17:32.109Z,99.71
2024-01-06T01:19:55.907Z,98.85
2024-01-06T01:22:21.008Z,98.90
2024-01-06T01:24:45.342Z,98.72
2024-01-06T01:27:09.049Z,98.46
2024-01-06T01:29:32.776Z,98.44
2024-01-06T01:31:56.545Z,98.49
2024-01-06T01:34:20.733Z,98.48
2024-01-06T01:36:44.457Z,98.84
2024-01-06T01:39:09.637Z,99.33
2024-01-06T01:41:33.232Z,100.00
2024-01-06T01:43:59.578Z,100.00
2024-01-06T01:46:23.453Z,99.36
2024-01-06T01:48:47.691Z,99.00
2024-01-06T01:51:12.560Z,99.29
2024-01-06T01:53:36.335Z,99.26
2024-01-06T01:56:01.853Z,100.00
2024-01-06T01:58:25.625Z,100.00
2024-01-06T02:00:49.571Z,100.00
2024-01-06T02:03:16.130Z,99.60
2024-01-06T02:05:39.889Z,99.54
2024-01-06T02:08:03.817Z,98.60
2024-01-06T02:10:27.590Z,99.89
2024-01-06T02:12:53.415Z,99.83
2024-01-06T02:15:17.446Z,99.14
2024-01-06T02:17:41.692Z,98.65
2024-01-06T02:20:06.900Z,98.40
2024-01-06T02:22:31.976Z,98.76
2024-01-06T02:24:56.127Z,98.84
2024-01-06T02:27:19.828Z,99.76
2024-01-06T02:29:43.433Z,99.38
2024-01-06T02:32:08.206Z,98.86
2024-01-06T02:34:32.276Z,99.31
2024-01-06T02:36:56.002Z,99.75
2024-01-06T02:39:21.001Z,98.47
2024-01-06T02:41:44.701Z,98.48
2024-01-06T02:44:12.837Z,99.13
2024-01-06T02:46:37.481Z,98.58
2024-01-06T02:49:01.192Z,98.52
2024-01-06T02:51:24.950Z,98.07
2024-01-06T02:53:48.557Z,98.08
2024-01-06T02:56:16.767Z,98.04
2024-01-06T02:58:40.467Z,98.07
2024-01-06T03:01:04.564Z,97.54
2024-01-06T03:03:28.387Z,97.76
2024-01-06T03:05:52.123Z,97.22
2024-01-06T03:08:15.756Z,98.73
2024-01-06T03:10:39.520Z,98.93
2024-01-06T03:13:04.707Z,98.16
2024-01-06T03:15:28.382Z,98.95
2024-01-06T03:17:52.075Z,98.75
2024-01-06T03:20:15.806Z,98.38
2024-01-06T03:22:39.618Z,98.10
2024-01-06T03:25:03.949Z,97.58
2024-01-06T03:27:27.576Z,98.24
2024-01-06T03:29:52.830Z,98.21
2024-01-06T03:32:16.467Z,97.89
2024-01-06T03:34:40.225Z,98.67
2024-01-06T03:37:03.867Z,99.11
2024-01-06T03:39:27.577Z,99.59
2024-01-06T03:41:51.574Z,99.07
2024-01-06T03:44:15.214Z,98.83
2024-01-06T03:46:40.659Z,98.95
2024-01-06T03:49:04.964Z,98.57
2024-01-06T03:51:28.755Z,98.43
2024-01-06T03:53:52.450Z,98.18
2024-01-06T03:56:16.349Z,99.22
2024-01-06T03:58:40.005Z,97.70
2024-01-06T04:01:03.945Z,97.46
2024-01-06T04:03:29.185Z,97.32
2024-01-06T04:05:52.882Z,97.58
2024-01-06T04:08:16.647Z,97.57
2024-01-06T04:10:40.874Z,97.51
2024-01-06T04:13:04.640Z,98.28
2024-01-06T04:15:28.277Z,98.94
2024-01-06T04:17:53.699Z,98.65
2024-01-06T04:20:18.958Z,98.42
2024-01-06T04:22:42.657Z,98.62
2024-01-06T04:25:07.106Z,98.07
2024-01-06T04:27:30.803Z,98.76
2024-01-06T04:29:54.473Z,98.25
2024-01-06T04:32:18.176Z,98.04
2024-01-06T04:34:43.040Z,99.28
2024-01-06T04:37:08.221Z,99.53
2024-01-06T04:39:34.213Z,98.56
2024-01-06T04:41:58.667Z,98.24
2024-01-06T04:44:24.224Z,98.14
2024-01-06T04:46:47.873Z,98.94
2024-01-06T04:49:12.812Z,100.00
2024-01-06T04:51:36.557Z,99.80
2024-01-06T04:54:01.535Z,100.00
2024-01-06T04:56:25.204Z,100.00
2024-01-06T04:58:48.778Z,100.00
2024-01-06T05:01:13.170Z,100.00
2024-01-06T05:03:36.926Z,99.97
2024-01-06T05:05:59.647Z,100.00
2024-01-06T05:08:23.819Z,100.00
2024-01-06T05:10:50.175Z,100.00
2024-01-06T05:13:14.202Z,100.00
2024-01-06T05:15:37.881Z,100.00
2024-01-06T05:18:01.682Z,100.00
2024-01-06T05:20:25.695Z,100.00
2024-01-06T05:22:49.273Z,100.00
2024-01-06T05:25:13.007Z,100.00
2024-01-06T05:27:38.020Z,100.00
2024-01-06T05:30:01.699Z,100.00
2024-01-06T05:32:25.355Z,100.00
2024-01-06T05:34:49.170Z,100.00
2024-01-06T05:37:12.903Z,100.00
2024-01-06T05:39:37.257Z,100.00
2024-01-06T05:42:00.888Z,100.00
2024-01-06T05:44:26.223Z,100.00
2024-01-06T05:46:49.841Z,100.00
2024-01-06T05:49:13.597Z,100.00
2024-01-06T05:51:37.385Z,100.00
2024-01-06T05:54:01.030Z,100.00
2024-01-06T05:56:28.263Z,100.00
2024-01-06T05:58:51.921Z,100.00
2024-01-06T06:01:17.993Z,100.00
2024-01-06T06:03:42.727Z,100.00
2024-01-06T06:06:06.916Z,100.00
2024-01-06T06:08:30.587Z,100.00
2024-01-06T06:11:02.595Z,100.00
2024-01-06T06:13:26.622Z,100.00
2024-01-06T06:15:50.291Z,100.00
2024-01-06T06:18:15.497Z,100.00
2024-01-06T06:20:39.813Z,100.00
2024-01-06T06:23:03.495Z,100.00
2024-01-06T06:25:27.085Z,100.00
2024-01-06T06:27:50.797Z,100.00
2024-01-06T06:30:15.858Z,100.00
2024-01-06T06:32:39.741Z,100.00
2024-01-06T06:35:05.289Z,100.00
2024-01-06T06:37:28.926Z,100.00
2024-01-06T06:39:52.589Z,100.00
2024-01-06T06:42:16.276Z,100.00
2024-01-06T06:44:40.207Z,100.00
2024-01-06T06:47:03.930Z,100.00
2024-01-06T06:49:27.525Z,100.00
2024-01-06T06:51:52.647Z,100.00
2024-01-06T06:54:16.921Z,100.00
2024-01-06T06:56:40.702Z,100.00
2024-01-06T06:59:04.301Z,100.00
2024-01-06T07:01:27.995Z,100.00
2024-01-06T07:03:51.655Z,100.00
2024-01-06T07:06:15.792Z,100.00
2024-01-06T07:08:40.933Z,100.00
2024-01-06T07:11:04.818Z,100.00
2024-01-06T07:13:28.470Z,100.00
2024-01-06T07:15:52.529Z,100.00
2024-01-06T07:18:17.617Z,100.00
2024-01-06T07:20:41.365Z,100.00
2024-01-06T07:23:05.300Z,100.00
2024-01-06T07:25:31.451Z,100.00
2024-01-06T07:27:55.824Z,100.00
2024-01-06T07:30:19.921Z,100.00
2024-01-06T07:32:43.659Z,100.00
2024-01-06T07:35:08.339Z,100.00
2024-01-06T07:37:32.166Z,100.00
2024-01-06T07:39:55.907Z,100.00
2024-01-06T07:42:21.197Z,100.00
2024-01-06T07:44:45.620Z,100.00
2024-01-06T07:47:09.250Z,100.00
2024-01-06T07:49:33.184Z,100.00
2024-01-06T07:51:56.985Z,100.00
2024-01-06T07:54:20.685Z,100.00
2024-01-06T07:56:44.980Z,100.00
2024-01-06T07:59:10.053Z,100.00
2024-01-06T08:01:33.800Z,100.00
2024-01-06T08:03:57.635Z,100.00
2024-01-06T08:06:21.644Z,100.00
2024-01-06T08:08:47.020Z,100.00
2024-01-06T08:11:10.697Z,100.00
2024-01-06T08:13:34.350Z,100.00
2024-01-06T08:16:00.418Z,100.00
2024-01-06T08:18:24.367Z,100.00
2024-01-06T08:20:48.614Z,100.00
2024-01-06T08:23:12.555Z,100.00
2024-01-06T08:25:36.125Z,100.00
2024-01-06T08:27:59.844Z,100.00
2024-01-06T08:30:25.192Z,100.00
2024-01-06T08:32:50.355Z,100.00
2024-01-06T08:35:14.773Z,100.00
2024-01-06T08:37:38.455Z,100.00
2024-01-06T08:40:02.154Z,100.00
2024-01-06T08:42:27.257Z,100.00
2024-01-06T08:44:51.033Z,100.00
2024-01-06T08:47:14.762Z,100.00
2024-01-06T08:49:39.878Z,100.00
2024-01-06T08:52:03.639Z,100.00
2024-01-06T08:54:27.368Z,100.00
2024-01-06T08:56:51.078Z,100.00
2024-01-06T08:59:14.709Z,100.00
2024-01-06T09:01:40.175Z,100.00
2024-01-06T09:04:04.057Z,100.00
2024-01-06T09:06:29.265Z,100.00
2024-01-06T09:08:52.880Z,100.00
2024-01-06T09:11:16.529Z,99.92
2024-01-06T09:13:40.132Z,100.00
2024-01-06T09:16:04.087Z,100.00
2024-01-06T09:18:29.194Z,99.92
2024-01-06T09:20:52.907Z,100.00
2024-01-06T09:23:19.770Z,99.91
2024-01-06T09:25:44.948Z,100.00
2024-01-06T09:28:08.691Z,100.00
2024-01-06T09:30:32.492Z,99.80
2024-01-06T09:32:56.194Z,98.85
2024-01-06T09:35:19.862Z,98.54
2024-01-06T09:37:43.462Z,99.20
2024-01-06T09:40:13.942Z,98.02
2024-01-06T09:42:37.796Z,98.44
2024-01-06T09:45:01.900Z,98.77
2024-01-06T09:47:27.776Z,97.74
2024-01-06T09:49:52.794Z,97.55
2024-01-06T09:52:18.218Z,97.07
2024-01-06T09:54:47.117Z,97.39
2024-01-06T09:57:12.227Z,96.65
2024-01-06T09:59:38.165Z,96.14
2024-01-06T10:02:02.082Z,96.96
2024-01-06T10:04:25.790Z,96.76
2024-01-06T10:06:49.646Z,96.80
2024-01-06T10:09:14.823Z,97.27
2024-01-06T10:11:41.363Z,96.22
2024-01-06T10:14:06.607Z,97.02
2024-01-06T10:16:31.194Z,96.38
2024-01-06T10:18:55.788Z,96.42
2024-01-06T10:21:21.086Z,96.22
2024-01-06T10:23:46.879Z,96.51
2024-01-06T10:26:14.814Z,96.77
2024-01-06T10:28:39.544Z,96.98
2024-01-06T10:31:05.054Z,96.78
2024-01-06T10:33:29.184Z,96.64
2024-01-06T10:35:53.031Z,96.38
2024-01-06T10:38:17.440Z,96.10
2024-01-06T10:40:41.108Z,96.42
2024-01-06T10:43:06.019Z,96.09
2024-01-06T10:45:31.955Z,96.62
2024-01-06T10:47:58.105Z,96.10
2024-01-06T10:50:23.519Z,96.63
2024-01-06T10:52:48.730Z,95.94
2024-01-06T10:55:12.554Z,95.47
2024-01-06T10:57:37.136Z,95.79
2024-01-06T11:00:02.240Z,96.48
2024-01-06T11:02:27.501Z,95.29
2024-01-06T11:04:52.852Z,96.11
2024-01-06T11:07:19.145Z,95.81
2024-01-06T11:09:49.669Z,97.37
2024-01-06T11:12:13.474Z,97.44
2024-01-06T11:14:40.160Z,95.97
2024-01-06T11:17:03.742Z,96.54
2024-01-06T11:19:49.190Z,97.46
2024-01-06T11:22:27.701Z,96.65
2024-01-06T11:24:53.077Z,96.24
2024-01-06T11:27:21.311Z,97.44
2024-01-06T11:29:46.245Z,96.63
2024-01-06T11:32:28.505Z,95.74
2024-01-06T11:34:54.419Z,96.62
2024-01-06T11:37:21.922Z,96.08
2024-01-06T11:39:47.513Z,95.90
2024-01-06T11:42:13.681Z,95.40
2024-01-06T11:44:39.453Z,95.35
2024-01-06T11:47:03.723Z,95.55
2024-01-06T11:49:30.387Z,95.28
2024-01-06T11:51:54.830Z,95.32
2024-01-06T11:54:18.724Z,94.55
2024-01-06T11:56:43.746Z,94.51
2024-01-06T11:59:07.790Z,94.44
2024-01-06T12:01:39.099Z,94.87
2024-01-06T12:04:04.500Z,94.57
2024-01-06T12:06:28.242Z,94.26
2024-01-06T12:08:52.045Z,93.49
2024-01-06T12:11:20.397Z,94.13
2024-01-06T12:13:45.429Z,93.97
2024-01-06T12:16:09.407Z,94.05
2024-01-06T12:18:34.862Z,93.49
2024-01-06T12:20:58.974Z,92.99
2024-01-06T12:23:29.974Z,93.57
2024-01-06T12:25:54.737Z,92.65
2024-01-06T12:28:18.505Z,93.06
2024-01-06T12:30:43.661Z,93.04
2024-01-06T12:33:07.820Z,93.61
2024-01-06T12:35:31.639Z,92.93
2024-01-06T12:37:55.222Z,93.05
2024-01-06T12:40:21.000Z,93.54
2024-01-06T12:42:44.927Z,92.95
2024-01-06T12:45:10.877Z,92.99
2024-01-06T12:47:36.359Z,92.30
2024-01-06T12:50:00.113Z,93.31
2024-01-06T12:52:23.963Z,93.04
2024-01-06T12:54:48.006Z,92.21
2024-01-06T12:57:12.812Z,92.76
2024-01-06T12:59:36.481Z,93.46
2024-01-06T13:02:00.322Z,93.47
2024-01-06T13:04:25.589Z,93.97
2024-01-06T13:06:50.240Z,92.77
2024-01-06T13:09:17.656Z,92.24
2024-01-06T13:11:41.489Z,92.04
2024-01-06T13:14:05.534Z,91.80
2024-01-06T13:16:29.160Z,91.87
2024-01-06T13:18:55.435Z,92.72
2024-01-06T13:21:21.398Z,92.37
2024-01-06T13:23:45.270Z,92.84
2024-01-06T13:26:09.891Z,93.28
2024-01-06T13:28:33.528Z,92.39
2024-01-06T13:30:57.208Z,92.26
2024-01-06T13:33:21.016Z,93.67
2024-01-06T13:35:45.098Z,93.83
2024-01-06T13:38:10.847Z,92.09
2024-01-06T13:40:34.632Z,91.75
2024-01-06T13:42:58.605Z,92.45
2024-01-06T13:45:22.255Z,92.32
2024-01-06T13:47:46.787Z,92.96
2024-01-06T13:50:11.813Z,92.36
2024-01-06T13:52:35.474Z,92.74
2024-01-06T13:55:00.786Z,93.33
2024-01-06T13:57:24.559Z,92.58
2024-01-06T13:59:48.168Z,93.29
2024-01-06T14:02:12.694Z,92.44
2024-01-06T14:04:36.445Z,91.28
2024-01-06T14:07:03.229Z,90.90
2024-01-06T14:09:28.647Z,90.73
2024-01-06T14:11:53.972Z,92.11
2024-01-06T14:14:17.609Z,92.57
2024-01-06T14:16:41.423Z,91.44
2024-01-06T14:19:05.562Z,92.14
2024-01-06T14:21:29.569Z,91.67
2024-01-06T14:23:53.206Z,91.25
2024-01-06T14:26:17.739Z,91.44
2024-01-06T14:28:42.777Z,92.06
2024-01-06T14:31:06.592Z,91.64
2024-01-06T14:33:30.303Z,90.81
2024-01-06T14:35:54.128Z,90.31
2024-01-06T14:38:17.859Z,91.73
2024-01-06T14:40:41.494Z,90.78
2024-01-06T14:43:05.511Z,90.56
2024-01-06T14:45:30.704Z,90.82
2024-01-06T14:47:54.576Z,90.13
2024-01-06T14:50:18.515Z,90.82
2024-01-06T14:52:42.143Z,90.67
2024-01-06T14:55:06.590Z,89.80
2024-01-06T14:57:30.262Z,89.86
2024-01-06T14:59:53.953Z,90.12
2024-01-06T15:02:18.962Z,89.86
2024-01-06T15:04:41.700Z,89.72
2024-01-06T15:07:06.101Z,89.46
2024-01-06T15:09:30.099Z,89.30
2024-01-06T15:11:53.817Z,89.16
2024-01-06T15:14:17.463Z,89.60
2024-01-06T15:16:41.128Z,89.59
2024-01-06T15:19:09.140Z,89.63
2024-01-06T15:21:35.030Z,89.42
2024-01-06T15:23:58.940Z,89.72
2024-01-06T15:26:26.333Z,89.44
2024-01-06T15:28:49.998Z,88.86
2024-01-06T15:31:13.698Z,89.16
2024-01-06T15:33:39.109Z,88.13
2024-01-06T15:36:05.779Z,87.99
2024-01-06T15:38:29.481Z,89.61
2024-01-06T15:40:53.278Z,89.46
2024-01-06T15:43:16.998Z,88.58
2024-01-06T15:45:41.849Z,88.59
2024-01-06T15:48:06.601Z,89.42
2024-01-06T15:50:30.689Z,89.18
2024-01-06T15:52:55.777Z,89.71
2024-01-06T15:55:19.489Z,89.06
2024-01-06T15:57:44.090Z,89.41
2024-01-06T16:00:09.353Z,89.73
2024-01-06T16:02:33.173Z,88.65
2024-01-06T16:04:57.792Z,87.60
2024-01-06T16:07:24.143Z,87.52
2024-01-06T16:09:49.325Z,87.57
2024-01-06T16:12:13.046Z,88.60
2024-01-06T16:14:37.237Z,87.40
2024-01-06T16:17:01.927Z,87.74
2024-01-06T16:19:25.639Z,87.98
2024-01-06T16:21:57.187Z,87.98
2024-01-06T16:24:29.478Z,86.82
2024-01-06T16:26:54.675Z,86.76
2024-01-06T16:29:18.492Z,87.08
2024-01-06T16:31:42.185Z,86.95
2024-01-06T16:34:06.031Z,86.96
2024-01-06T16:36:29.926Z,86.80
2024-01-06T16:38:53.624Z,86.56
2024-01-06T16:41:17.438Z,87.37
2024-01-06T16:43:42.467Z,86.52
2024-01-06T16:46:07.333Z,87.68
2024-01-06T16:48:31.333Z,87.96
2024-01-06T16:50:55.229Z,87.63
2024-01-06T16:53:19.093Z,87.79
2024-01-06T16:55:43.081Z,87.74
2024-01-06T16:58:07.415Z,86.73
2024-01-06T17:00:32.800Z,86.58
2024-01-06T17:02:58.453Z,86.40
2024-01-06T17:05:23.764Z,86.06
2024-01-06T17:07:48.811Z,86.94
2024-01-06T17:10:14.212Z,87.19
2024-01-06T17:12:39.412Z,88.33
2024-01-06T17:15:04.835Z,89.25
2024-01-06T17:17:31.865Z,89.86
2024-01-06T17:19:57.281Z,90.35
2024-01-06T17:22:23.047Z,91.96
2024-01-06T17:24:48.280Z,92.52
2024-01-06T17:27:13.289Z,92.32
2024-01-06T17:29:38.399Z,91.82
2024-01-06T17:32:03.463Z,92.74
2024-01-06T17:34:29.942Z,92.76
2024-01-06T17:36:55.380Z,92.88
2024-01-06T17:39:20.871Z,93.71
2024-01-06T17:41:52.864Z,92.55
2024-01-06T17:44:21.206Z,93.33
2024-01-06T17:46:45.060Z,93.15
2024-01-06T17:49:08.933Z,91.48
2024-01-06T17:51:34.914Z,89.89
2024-01-06T17:53:58.771Z,89.08
2024-01-06T17:56:22.434Z,88.29
2024-01-06T17:58:46.374Z,88.46
2024-01-06T18:01:10.240Z,87.46
2024-01-06T18:03:34.076Z,87.77
2024-01-06T18:05:57.737Z,87.54
2024-01-06T18:08:22.796Z,87.68
2024-01-06T18:10:46.732Z,87.89
2024-01-06T18:13:10.402Z,88.79
2024-01-06T18:15:34.578Z,88.46
2024-01-06T18:17:58.457Z,88.41
2024-01-06T18:20:22.963Z,88.68
2024-01-06T18:22:46.958Z,88.76
2024-01-06T18:25:13.289Z,89.69
2024-01-06T18:27:37.039Z,88.75
2024-01-06T18:30:00.634Z,88.33
2024-01-06T18:32:24.598Z,88.63
2024-01-06T18:34:48.499Z,89.44
2024-01-06T18:37:13.660Z,87.95
2024-01-06T18:39:37.294Z,87.48
2024-01-06T18:42:02.303Z,87.25
2024-01-06T18:44:25.876Z,87.98
2024-01-06T18:46:49.583Z,87.13
2024-01-06T18:49:13.207Z,87.35
2024-01-06T18:51:39.733Z,88.03
2024-01-06T18:54:03.404Z,87.05
2024-01-06T18:56:28.510Z,87.79
2024-01-06T18:58:55.239Z,86.53
2024-01-06T19:01:19.099Z,86.74
2024-01-06T19:03:44.953Z,87.11
2024-01-06T19:06:08.802Z,86.48
2024-01-06T19:08:32.433Z,85.71
2024-01-06T19:10:56.097Z,85.87
2024-01-06T19:13:19.709Z,85.90
2024-01-06T19:15:44.838Z,85.22
2024-01-06T19:18:09.179Z,86.26
2024-01-06T19:20:32.923Z,85.65
2024-01-06T19:23:06.050Z,85.40
2024-01-06T19:25:32.912Z,85.94
2024-01-06T19:27:56.665Z,85.09
2024-01-06T19:30:20.731Z,85.38
2024-01-06T19:32:47.131Z,85.06
2024-01-06T19:35:11.510Z,85.56
2024-01-06T19:37:35.142Z,85.47
2024-01-06T19:39:58.983Z,84.91
2024-01-06T19:42:22.796Z,84.38
2024-01-06T19:44:47.144Z,84.22
2024-01-06T19:47:11.184Z,84.08
2024-01-06T19:49:36.254Z,84.65
2024-01-06T19:52:00.099Z,84.07
2024-01-06T19:54:24.692Z,84.42
2024-01-06T19:56:48.598Z,84.11
2024-01-06T19:59:13.373Z,84.04
2024-01-06T20:01:38.624Z,83.48
2024-01-06T20:04:03.345Z,84.56
2024-01-06T20:06:29.135Z,84.45
2024-01-06T20:08:54.460Z,84.15
2024-01-06T20:11:18.051Z,84.39
2024-01-06T20:13:42.710Z,84.94
2024-01-06T20:16:07.528Z,86.06
2024-01-06T20:18:32.016Z,86.79
2024-01-06T20:20:56.092Z,87.34
2024-01-06T20:23:22.102Z,87.21
2024-01-06T20:25:46.139Z,87.68
2024-01-06T20:28:10.108Z,88.73
2024-01-06T20:30:35.412Z,88.22
2024-01-06T20:32:59.364Z,88.05
2024-01-06T20:35:24.579Z,88.18
2024-01-06T20:37:48.369Z,87.09
2024-01-06T20:40:14.930Z,86.57
2024-01-06T20:42:38.821Z,87.47
2024-01-06T20:45:03.371Z,85.85
2024-01-06T20:47:27.152Z,86.03
2024-01-06T20:49:51.011Z,85.20
2024-01-06T20:52:14.761Z,85.04
2024-01-06T20:54:39.461Z,84.92
2024-01-06T20:57:04.551Z,84.35
2024-01-06T20:59:31.664Z,83.62
2024-01-06T21:01:55.385Z,82.90
2024-01-06T21:04:19.028Z,82.60
2024-01-06T21:06:42.765Z,81.48
2024-01-06T21:09:06.440Z,81.93
2024-01-06T21:11:30.097Z,80.90
2024-01-06T21:13:55.232Z,81.32
2024-01-06T21:16:19.038Z,80.66
2024-01-06T21:18:42.744Z,79.53
2024-01-06T21:21:06.809Z,79.83
2024-01-06T21:23:40.031Z,79.92
2024-01-06T21:26:09.729Z,79.20
2024-01-06T21:28:33.369Z,79.21
2024-01-06T21:30:58.559Z,79.35
2024-01-06T21:33:22.793Z,79.24
2024-01-06T21:35:46.582Z,79.33
2024-01-06T21:38:13.691Z,78.81
2024-01-06T21:40:37.376Z,78.18
2024-01-06T21:43:00.971Z,78.02
2024-01-06T21:45:24.725Z,77.74
2024-01-06T21:47:52.758Z,77.20
2024-01-06T21:50:16.661Z,78.05
2024-01-06T21:52:41.328Z,76.71
2024-01-06T21:55:07.578Z,77.37
2024-01-06T21:57:31.246Z,77.53
2024-01-06T21:59:54.978Z,76.66
2024-01-06T22:02:18.695Z,76.91
2024-01-06T22:04:43.774Z,76.59
2024-01-06T22:07:07.717Z,75.96
2024-01-06T22:09:31.984Z,75.91
2024-01-06T22:11:55.998Z,77.19
2024-01-06T22:14:19.764Z,76.63
2024-01-06T22:16:43.371Z,76.99
2024-01-06T22:19:08.430Z,76.71
2024-01-06T22:21:33.565Z,77.00
2024-01-06T22:23:58.493Z,76.31
2024-01-06T22:26:22.134Z,75.46
2024-01-06T22:28:45.967Z,76.53
2024-01-06T22:31:11.423Z,75.62
2024-01-06T22:33:35.651Z,75.97
2024-01-06T22:35:59.335Z,75.33
2024-01-06T22:38:24.386Z,76.42
2024-01-06T22:40:48.685Z,76.05
2024-01-06T22:43:12.441Z,75.18
2024-01-06T22:45:36.146Z,75.07
2024-01-06T22:48:00.257Z,75.75
2024-01-06T22:50:24.005Z,76.43
2024-01-06T22:52:47.665Z,76.96
2024-01-06T22:55:12.812Z,76.12
2024-01-06T22:57:38.165Z,75.07
2024-01-06T23:00:07.363Z,74.38
2024-01-06T23:02:31.006Z,75.94
2024-01-06T23:04:56.721Z,75.20
2024-01-06T23:07:20.509Z,75.44
2024-01-06T23:09:44.160Z,75.05
2024-01-06T23:12:09.730Z,75.85
2024-01-06T23:14:33.354Z,75.78
2024-01-06T23:16:57.030Z,75.42
2024-01-06T23:19:20.745Z,74.81
2024-01-06T23:21:44.797Z,75.92
2024-01-06T23:24:09.367Z,74.87
2024-01-06T23:26:33.069Z,76.09
2024-01-06T23:28:58.035Z,76.49
2024-01-06T23:31:21.880Z,75.83
2024-01-06T23:33:45.747Z,76.28
2024-01-06T23:36:09.825Z,76.35
2024-01-06T23:38:33.483Z,76.87
2024-01-06T23:40:57.156Z,76.52
2024-01-06T23:43:20.741Z,76.96
2024-01-06T23:45:44.947Z,76.24
2024-01-06T23:48:08.863Z,75.70
2024-01-06T23:50:32.673Z,76.19
2024-01-06T23:52:56.492Z,76.95
2024-01-06T23:55:20.280Z,75.69
2024-01-06T23:57:44.107Z,74.73
